This is the latest recevied weather packets stored in our database for station/object EA5DFV. If no packets are shown the sender has not sent any weather packets the latest 10 day(s).
| Time | Temp. | Humidity | Pressure | Rain* | Wind** | Luminosity | Snow |
|---|---|---|---|---|---|---|---|
| 1777913908 | 22.22° C | 74% | 1009.4 hPa | 0 mm | - | 315 W/m² | - |
| 1777913621 | 22.22° C | 74% | 1009.5 hPa | 0 mm | - | 330 W/m² | - |
| 1777913311 | 22.22° C | 74% | 1009.6 hPa | 0 mm | - | 338 W/m² | - |
| 1777913005 | 22.22° C | 75% | 1009.7 hPa | 0 mm | - | 359 W/m² | - |
| 1777912715 | 22.22° C | 74% | 1009.8 hPa | 0 mm | - | 383 W/m² | - |
| 1777912408 | 22.22° C | 75% | 1009.9 hPa | 0 mm | - | 422 W/m² | - |
| 1777912119 | 22.22° C | 76% | 1010 hPa | 0 mm | - | 418 W/m² | - |
| 1777911814 | 21.67° C | 79% | 1010 hPa | 0 mm | - | 438 W/m² | - |
| 1777911507 | 21.11° C | 79% | 1009.9 hPa | 0 mm | - | 506 W/m² | - |
| 1777911197 | 20.56° C | 81% | 1010 hPa | 0 mm | - | 515 W/m² | - |
| 1777910907 | 20.56° C | 80% | 1010 hPa | 0 mm | - | 279 W/m² | - |
| 1777910611 | 20.56° C | 80% | 1010 hPa | 0 mm | - | 216 W/m² | - |
| 1777910304 | 20° C | 80% | 1010 hPa | 0 mm | - | 218 W/m² | - |
| 1777910015 | 20.56° C | 82% | 1010 hPa | 0 mm | - | 209 W/m² | - |
| 1777909706 | 20° C | 81% | 1009.9 hPa | 0 mm | - | 151 W/m² | - |
| 1777909403 | 20° C | 82% | 1009.8 hPa | 1.02 mm | - | 190 W/m² | - |
| 1777909114 | 20° C | 82% | 1009.7 hPa | 2.03 mm | - | 304 W/m² | - |
| 1777908807 | 20° C | 82% | 1009.8 hPa | 2.03 mm | - | 262 W/m² | - |
| 1777908501 | 20° C | 83% | 1010 hPa | 3.05 mm | - | 401 W/m² | - |
| 1777908211 | 20.56° C | 83% | 1010 hPa | 4.06 mm | - | 221 W/m² | - |
| 1777907905 | 20.56° C | 83% | 1010 hPa | 5.08 mm | - | 418 W/m² | - |
| 1777907614 | 20.56° C | 84% | 1010 hPa | 6.1 mm | - | 316 W/m² | - |
| 1777907308 | 20.56° C | 83% | 1009.9 hPa | 11.94 mm | - | 696 W/m² | - |
| 1777907006 | 20° C | 84% | 1010 hPa | 12.95 mm | - | 712 W/m² | - |
| 1777906716 | 19.44° C | 83% | 1010 hPa | 12.95 mm | - | 468 W/m² | - |
* Rain latest hour (hover to see other rain measurements)
** Current wind speed in m/s (hover to see current wind gust speed)